ěÝzenÝ letovÚho provozu ╚eskÚ republiky
Letiste: LKLN Aktualizace: 07.07.2020 15:57:24  UTC
 METAR LKLN 07.07. 16:00 ...
METAR LKLN 071600Z AUTO 27004KT 210V360 9999 SCT074 19/04 Q1019=